sensor_id;sensor_type;location;lat;lon;timestamp;pressure;altitude;pressure_sealevel;temperature;humidity
30897;BME280;64229;52.246;21.054;2023-08-06T00:01:46;99454.38;;;18.83;100.00
30897;BME280;64229;52.246;21.054;2023-08-06T00:04:11;99450.75;;;18.79;100.00
30897;BME280;64229;52.246;21.054;2023-08-06T00:06:37;99443.88;;;18.82;100.00
30897;BME280;64229;52.246;21.054;2023-08-06T00:09:02;99437.25;;;18.79;100.00
30897;BME280;64229;52.246;21.054;2023-08-06T00:11:27;99436.25;;;18.84;100.00
30897;BME280;64229;52.246;21.054;2023-08-06T00:13:53;99424.50;;;18.79;100.00
30897;BME280;64229;52.246;21.054;2023-08-06T00:16:18;99428.00;;;18.80;100.00
30897;BME280;64229;52.246;21.054;2023-08-06T00:18:43;99424.84;;;18.78;100.00
30897;BME280;64229;52.246;21.054;2023-08-06T00:21:08;99427.22;;;18.79;100.00
30897;BME280;64229;52.246;21.054;2023-08-06T00:23:34;99432.63;;;18.79;100.00
30897;BME280;64229;52.246;21.054;2023-08-06T00:25:59;99434.19;;;18.81;100.00
30897;BME280;64229;52.246;21.054;2023-08-06T00:28:24;99456.59;;;18.81;100.00
30897;BME280;64229;52.246;21.054;2023-08-06T00:30:54;99458.88;;;18.79;100.00
30897;BME280;64229;52.246;21.054;2023-08-06T00:33:20;99459.22;;;18.77;100.00
30897;BME280;64229;52.246;21.054;2023-08-06T00:35:45;99436.66;;;18.98;100.00
30897;BME280;64229;52.246;21.054;2023-08-06T00:38:11;99422.81;;;18.87;100.00
30897;BME280;64229;52.246;21.054;2023-08-06T00:40:36;99441.19;;;18.94;100.00
30897;BME280;64229;52.246;21.054;2023-08-06T00:43:02;99441.63;;;18.96;100.00
30897;BME280;64229;52.246;21.054;2023-08-06T00:45:27;99427.34;;;18.83;100.00
30897;BME280;64229;52.246;21.054;2023-08-06T00:47:53;99422.28;;;18.69;100.00
30897;BME280;64229;52.246;21.054;2023-08-06T00:50:18;99420.91;;;18.63;100.00
30897;BME280;64229;52.246;21.054;2023-08-06T00:52:46;99417.75;;;18.61;100.00
30897;BME280;64229;52.246;21.054;2023-08-06T00:55:11;99408.75;;;18.57;100.00
30897;BME280;64229;52.246;21.054;2023-08-06T00:57:36;99406.03;;;18.57;100.00
30897;BME280;64229;52.246;21.054;2023-08-06T01:00:02;99366.22;;;18.42;100.00
30897;BME280;64229;52.246;21.054;2023-08-06T01:02:29;99376.22;;;18.54;100.00
30897;BME280;64229;52.246;21.054;2023-08-06T01:04:54;99375.09;;;18.55;100.00
30897;BME280;64229;52.246;21.054;2023-08-06T01:15:32;99348.41;;;18.53;100.00
30897;BME280;64229;52.246;21.054;2023-08-06T01:18:00;99340.97;;;18.50;100.00
30897;BME280;64229;52.246;21.054;2023-08-06T01:20:29;99335.56;;;18.50;100.00
30897;BME280;64229;52.246;21.054;2023-08-06T01:22:55;99329.28;;;18.46;100.00
30897;BME280;64229;52.246;21.054;2023-08-06T01:25:20;99321.16;;;18.46;100.00
30897;BME280;64229;52.246;21.054;2023-08-06T01:27:48;99262.56;;;18.22;100.00
30897;BME280;64229;52.246;21.054;2023-08-06T01:30:25;99291.53;;;18.49;100.00
30897;BME280;64229;52.246;21.054;2023-08-06T01:32:56;99237.34;;;18.18;100.00
30897;BME280;64229;52.246;21.054;2023-08-06T01:35:25;99255.53;;;18.45;100.00
30897;BME280;64229;52.246;21.054;2023-08-06T01:37:51;99250.56;;;18.47;100.00
30897;BME280;64229;52.246;21.054;2023-08-06T01:40:17;99244.38;;;18.47;100.00
30897;BME280;64229;52.246;21.054;2023-08-06T01:42:42;99224.16;;;18.41;100.00
30897;BME280;64229;52.246;21.054;2023-08-06T01:45:08;99227.66;;;18.41;100.00
30897;BME280;64229;52.246;21.054;2023-08-06T01:47:33;99228.00;;;18.40;100.00
30897;BME280;64229;52.246;21.054;2023-08-06T01:49:59;99214.91;;;18.42;100.00
30897;BME280;64229;52.246;21.054;2023-08-06T01:52:25;99215.72;;;18.42;100.00
30897;BME280;64229;52.246;21.054;2023-08-06T01:54:51;99217.19;;;18.40;100.00
30897;BME280;64229;52.246;21.054;2023-08-06T01:57:16;99209.56;;;18.30;100.00
30897;BME280;64229;52.246;21.054;2023-08-06T01:59:41;99204.25;;;18.33;100.00
30897;BME280;64229;52.246;21.054;2023-08-06T02:02:06;99197.16;;;18.29;100.00
30897;BME280;64229;52.246;21.054;2023-08-06T02:04:32;99215.25;;;18.40;100.00
30897;BME280;64229;52.246;21.054;2023-08-06T02:06:57;99212.44;;;18.37;100.00
30897;BME280;64229;52.246;21.054;2023-08-06T02:09:22;99205.25;;;18.41;100.00
30897;BME280;64229;52.246;21.054;2023-08-06T02:11:47;99208.03;;;18.44;100.00
30897;BME280;64229;52.246;21.054;2023-08-06T02:14:13;99202.97;;;18.43;100.00
30897;BME280;64229;52.246;21.054;2023-08-06T02:16:38;99200.72;;;18.45;100.00
30897;BME280;64229;52.246;21.054;2023-08-06T02:19:03;99195.31;;;18.45;100.00
30897;BME280;64229;52.246;21.054;2023-08-06T02:21:29;99181.81;;;18.45;100.00
30897;BME280;64229;52.246;21.054;2023-08-06T02:23:54;99177.63;;;18.47;100.00
30897;BME280;64229;52.246;21.054;2023-08-06T02:26:19;99161.25;;;18.40;100.00
30897;BME280;64229;52.246;21.054;2023-08-06T02:28:45;99162.19;;;18.48;100.00
30897;BME280;64229;52.246;21.054;2023-08-06T02:31:10;99163.88;;;18.53;100.00
30897;BME280;64229;52.246;21.054;2023-08-06T02:33:35;99159.63;;;18.52;100.00
30897;BME280;64229;52.246;21.054;2023-08-06T02:36:02;99166.25;;;18.54;100.00
30897;BME280;64229;52.246;21.054;2023-08-06T02:38:28;99171.63;;;18.54;100.00
30897;BME280;64229;52.246;21.054;2023-08-06T02:40:54;99173.22;;;18.55;100.00
30897;BME280;64229;52.246;21.054;2023-08-06T02:43:19;99166.25;;;18.54;100.00
30897;BME280;64229;52.246;21.054;2023-08-06T02:45:45;99163.63;;;18.58;100.00
30897;BME280;64229;52.246;21.054;2023-08-06T02:48:10;99156.22;;;18.55;100.00
30897;BME280;64229;52.246;21.054;2023-08-06T02:50:41;99168.69;;;18.59;100.00
30897;BME280;64229;52.246;21.054;2023-08-06T02:53:08;99157.09;;;18.59;100.00
30897;BME280;64229;52.246;21.054;2023-08-06T02:55:34;99156.22;;;18.55;100.00
30897;BME280;64229;52.246;21.054;2023-08-06T02:58:00;99155.75;;;18.65;100.00
30897;BME280;64229;52.246;21.054;2023-08-06T03:00:26;99148.75;;;18.64;100.00
30897;BME280;64229;52.246;21.054;2023-08-06T03:02:51;99153.47;;;18.67;100.00
30897;BME280;64229;52.246;21.054;2023-08-06T03:05:17;99145.38;;;18.67;100.00
30897;BME280;64229;52.246;21.054;2023-08-06T03:07:42;99130.72;;;18.68;100.00
30897;BME280;64229;52.246;21.054;2023-08-06T03:10:08;99109.69;;;18.61;100.00
30897;BME280;64229;52.246;21.054;2023-08-06T03:12:33;99115.66;;;18.67;100.00
30897;BME280;64229;52.246;21.054;2023-08-06T03:14:59;99111.88;;;18.71;100.00
30897;BME280;64229;52.246;21.054;2023-08-06T03:17:24;99101.06;;;18.71;100.00
30897;BME280;64229;52.246;21.054;2023-08-06T03:19:49;99090.03;;;18.76;100.00
30897;BME280;64229;52.246;21.054;2023-08-06T03:22:14;99088.88;;;18.77;100.00
30897;BME280;64229;52.246;21.054;2023-08-06T03:24:40;99085.06;;;18.78;100.00
30897;BME280;64229;52.246;21.054;2023-08-06T03:27:05;99084.28;;;18.78;100.00
30897;BME280;64229;52.246;21.054;2023-08-06T03:29:30;99073.81;;;18.76;100.00
30897;BME280;64229;52.246;21.054;2023-08-06T03:31:56;99063.06;;;18.80;100.00
30897;BME280;64229;52.246;21.054;2023-08-06T03:34:21;99057.84;;;18.71;100.00
30897;BME280;64229;52.246;21.054;2023-08-06T03:36:47;99063.97;;;18.84;100.00
30897;BME280;64229;52.246;21.054;2023-08-06T03:39:12;99061.25;;;18.84;100.00
30897;BME280;64229;52.246;21.054;2023-08-06T03:41:39;99049.66;;;18.84;100.00
30897;BME280;64229;52.246;21.054;2023-08-06T03:44:04;99037.63;;;18.81;100.00
30897;BME280;64229;52.246;21.054;2023-08-06T03:46:29;99034.31;;;18.88;100.00
30897;BME280;64229;52.246;21.054;2023-08-06T03:48:58;99030.47;;;18.89;100.00
30897;BME280;64229;52.246;21.054;2023-08-06T03:51:24;99029.69;;;18.88;100.00
30897;BME280;64229;52.246;21.054;2023-08-06T03:53:49;99024.69;;;18.90;100.00
30897;BME280;64229;52.246;21.054;2023-08-06T03:56:14;99015.13;;;18.93;100.00
30897;BME280;64229;52.246;21.054;2023-08-06T03:58:39;99013.22;;;18.93;100.00
30897;BME280;64229;52.246;21.054;2023-08-06T04:01:05;99005.78;;;18.90;100.00
30897;BME280;64229;52.246;21.054;2023-08-06T04:03:30;99007.09;;;18.96;100.00
30897;BME280;64229;52.246;21.054;2023-08-06T04:05:55;98996.63;;;18.95;100.00
30897;BME280;64229;52.246;21.054;2023-08-06T04:08:21;98986.25;;;18.97;100.00
30897;BME280;64229;52.246;21.054;2023-08-06T04:10:49;98982.47;;;19.01;100.00
30897;BME280;64229;52.246;21.054;2023-08-06T04:13:15;98985.63;;;19.03;100.00
30897;BME280;64229;52.246;21.054;2023-08-06T04:15:40;98981.34;;;19.02;100.00
30897;BME280;64229;52.246;21.054;2023-08-06T04:18:05;98977.53;;;19.03;100.00
30897;BME280;64229;52.246;21.054;2023-08-06T04:20:30;98979.09;;;19.04;100.00
30897;BME280;64229;52.246;21.054;2023-08-06T04:22:56;98968.69;;;19.06;100.00
30897;BME280;64229;52.246;21.054;2023-08-06T04:25:21;98966.41;;;19.08;100.00
30897;BME280;64229;52.246;21.054;2023-08-06T04:27:47;98964.56;;;19.13;100.00
30897;BME280;64229;52.246;21.054;2023-08-06T04:30:12;98962.63;;;19.13;100.00
30897;BME280;64229;52.246;21.054;2023-08-06T04:32:39;98964.72;;;19.20;100.00
30897;BME280;64229;52.246;21.054;2023-08-06T04:35:04;98946.94;;;19.19;100.00
30897;BME280;64229;52.246;21.054;2023-08-06T04:37:30;98952.50;;;19.26;100.00
30897;BME280;64229;52.246;21.054;2023-08-06T04:39:55;98944.88;;;19.31;100.00
30897;BME280;64229;52.246;21.054;2023-08-06T04:42:20;98944.59;;;19.36;100.00
30897;BME280;64229;52.246;21.054;2023-08-06T04:44:45;98941.19;;;19.40;100.00
30897;BME280;64229;52.246;21.054;2023-08-06T04:47:11;98940.88;;;19.45;100.00
30897;BME280;64229;52.246;21.054;2023-08-06T04:49:36;98928.59;;;19.47;100.00
30897;BME280;64229;52.246;21.054;2023-08-06T04:52:01;98927.16;;;19.53;100.00
30897;BME280;64229;52.246;21.054;2023-08-06T04:54:27;98936.59;;;19.59;100.00
30897;BME280;64229;52.246;21.054;2023-08-06T04:56:52;98926.59;;;19.63;100.00
30897;BME280;64229;52.246;21.054;2023-08-06T04:59:17;98923.16;;;19.67;100.00
30897;BME280;64229;52.246;21.054;2023-08-06T05:01:43;98917.06;;;19.70;100.00
30897;BME280;64229;52.246;21.054;2023-08-06T05:04:08;98920.19;;;19.72;100.00
30897;BME280;64229;52.246;21.054;2023-08-06T05:06:33;98911.28;;;19.71;100.00
30897;BME280;64229;52.246;21.054;2023-08-06T05:08:58;98895.69;;;19.64;100.00
30897;BME280;64229;52.246;21.054;2023-08-06T05:11:24;98909.84;;;19.77;100.00
30897;BME280;64229;52.246;21.054;2023-08-06T05:13:49;98878.75;;;19.68;100.00
30897;BME280;64229;52.246;21.054;2023-08-06T05:16:15;98890.19;;;19.80;100.00
30897;BME280;64229;52.246;21.054;2023-08-06T05:18:40;98896.84;;;19.86;100.00
30897;BME280;64229;52.246;21.054;2023-08-06T05:21:06;98890.38;;;19.91;100.00
30897;BME280;64229;52.246;21.054;2023-08-06T05:23:32;98892.00;;;19.96;100.00
30897;BME280;64229;52.246;21.054;2023-08-06T05:25:57;98887.72;;;19.94;100.00
30897;BME280;64229;52.246;21.054;2023-08-06T05:28:22;98885.00;;;19.94;100.00
30897;BME280;64229;52.246;21.054;2023-08-06T05:30:48;98884.03;;;20.06;100.00
30897;BME280;64229;52.246;21.054;2023-08-06T05:33:13;98880.59;;;20.09;100.00
30897;BME280;64229;52.246;21.054;2023-08-06T05:35:40;98882.38;;;20.21;100.00
30897;BME280;64229;52.246;21.054;2023-08-06T05:38:05;98867.69;;;20.22;100.00
30897;BME280;64229;52.246;21.054;2023-08-06T05:40:33;98848.06;;;20.06;100.00
30897;BME280;64229;52.246;21.054;2023-08-06T05:42:58;98864.97;;;20.22;100.00
30897;BME280;64229;52.246;21.054;2023-08-06T05:45:23;98868.22;;;20.31;100.00
30897;BME280;64229;52.246;21.054;2023-08-06T05:47:49;98853.16;;;20.34;100.00
30897;BME280;64229;52.246;21.054;2023-08-06T05:50:14;98852.13;;;20.42;100.00
30897;BME280;64229;52.246;21.054;2023-08-06T05:52:40;98844.84;;;20.46;100.00
30897;BME280;64229;52.246;21.054;2023-08-06T05:55:05;98850.38;;;20.53;100.00
30897;BME280;64229;52.246;21.054;2023-08-06T05:57:31;98840.50;;;20.68;100.00
30897;BME280;64229;52.246;21.054;2023-08-06T05:59:56;98848.28;;;20.73;100.00
30897;BME280;64229;52.246;21.054;2023-08-06T06:02:21;98841.81;;;20.81;100.00
30897;BME280;64229;52.246;21.054;2023-08-06T06:04:46;98835.69;;;20.84;100.00
30897;BME280;64229;52.246;21.054;2023-08-06T06:07:12;98835.38;;;20.93;100.00
30897;BME280;64229;52.246;21.054;2023-08-06T06:09:37;98839.72;;;20.97;100.00
30897;BME280;64229;52.246;21.054;2023-08-06T06:12:05;98834.47;;;21.12;100.00
30897;BME280;64229;52.246;21.054;2023-08-06T06:14:30;98834.16;;;21.20;100.00
30897;BME280;64229;52.246;21.054;2023-08-06T06:16:55;98839.00;;;21.34;100.00
30897;BME280;64229;52.246;21.054;2023-08-06T06:19:21;98837.81;;;21.31;100.00
30897;BME280;64229;52.246;21.054;2023-08-06T06:21:46;98827.28;;;21.26;100.00
30897;BME280;64229;52.246;21.054;2023-08-06T06:24:11;98827.56;;;21.55;100.00
30897;BME280;64229;52.246;21.054;2023-08-06T06:26:36;98820.28;;;21.62;100.00
30897;BME280;64229;52.246;21.054;2023-08-06T06:29:02;98813.03;;;21.74;100.00
30897;BME280;64229;52.246;21.054;2023-08-06T06:31:27;98809.22;;;21.82;100.00
30897;BME280;64229;52.246;21.054;2023-08-06T06:33:52;98808.78;;;21.80;100.00
30897;BME280;64229;52.246;21.054;2023-08-06T06:36:19;98803.81;;;21.85;100.00
30897;BME280;64229;52.246;21.054;2023-08-06T06:38:44;98801.53;;;21.91;100.00
30897;BME280;64229;52.246;21.054;2023-08-06T06:41:10;98801.97;;;22.00;100.00
30897;BME280;64229;52.246;21.054;2023-08-06T06:43:36;98786.06;;;21.99;100.00
30897;BME280;64229;52.246;21.054;2023-08-06T06:46:02;98801.44;;;22.32;97.40
30897;BME280;64229;52.246;21.054;2023-08-06T06:48:29;98796.31;;;22.19;96.44
30897;BME280;64229;52.246;21.054;2023-08-06T06:50:55;98789.00;;;22.23;97.36
30897;BME280;64229;52.246;21.054;2023-08-06T06:53:21;98790.56;;;22.32;97.69
30897;BME280;64229;52.246;21.054;2023-08-06T06:55:52;98794.13;;;22.43;96.53
30897;BME280;64229;52.246;21.054;2023-08-06T06:58:18;98796.16;;;22.57;94.51
30897;BME280;64229;52.246;21.054;2023-08-06T07:00:43;98793.47;;;22.60;94.71
30897;BME280;64229;52.246;21.054;2023-08-06T07:03:08;98795.41;;;22.63;94.35
30897;BME280;64229;52.246;21.054;2023-08-06T07:05:33;98792.34;;;22.72;94.68
30897;BME280;64229;52.246;21.054;2023-08-06T07:07:59;98795.19;;;22.93;92.26
30897;BME280;64229;52.246;21.054;2023-08-06T07:10:25;98792.50;;;23.00;90.80
30897;BME280;64229;52.246;21.054;2023-08-06T07:12:51;98789.03;;;23.14;91.44
30897;BME280;64229;52.246;21.054;2023-08-06T07:15:16;98789.81;;;23.11;89.95
30897;BME280;64229;52.246;21.054;2023-08-06T07:17:42;98789.78;;;23.04;90.47
30897;BME280;64229;52.246;21.054;2023-08-06T07:20:08;98782.00;;;23.06;90.30
30897;BME280;64229;52.246;21.054;2023-08-06T07:22:33;98792.19;;;23.37;89.22
30897;BME280;64229;52.246;21.054;2023-08-06T07:24:59;98785.19;;;23.36;88.92
30897;BME280;64229;52.246;21.054;2023-08-06T07:27:25;98778.97;;;23.47;88.19
30897;BME280;64229;52.246;21.054;2023-08-06T07:29:50;98789.88;;;23.57;89.61
30897;BME280;64229;52.246;21.054;2023-08-06T07:32:15;98794.59;;;23.89;86.33
30897;BME280;64229;52.246;21.054;2023-08-06T07:34:41;98786.44;;;23.85;85.84
30897;BME280;64229;52.246;21.054;2023-08-06T07:37:06;98779.81;;;24.04;86.72
30897;BME280;64229;52.246;21.054;2023-08-06T07:39:31;98776.22;;;24.50;83.48
30897;BME280;64229;52.246;21.054;2023-08-06T07:41:57;98781.22;;;25.50;80.08
30897;BME280;64229;52.246;21.054;2023-08-06T07:44:22;98783.19;;;26.42;74.86
30897;BME280;64229;52.246;21.054;2023-08-06T07:46:48;98772.06;;;26.91;72.08
30897;BME280;64229;52.246;21.054;2023-08-06T07:49:14;98784.03;;;27.04;69.60
30897;BME280;64229;52.246;21.054;2023-08-06T07:51:39;98790.41;;;26.94;72.39
30897;BME280;64229;52.246;21.054;2023-08-06T07:54:06;98781.72;;;27.02;69.18
30897;BME280;64229;52.246;21.054;2023-08-06T07:56:31;98783.00;;;27.75;68.98
30897;BME280;64229;52.246;21.054;2023-08-06T07:58:56;98771.22;;;28.45;64.86
30897;BME280;64229;52.246;21.054;2023-08-06T08:01:22;98776.72;;;28.45;64.47
30897;BME280;64229;52.246;21.054;2023-08-06T08:03:47;98765.19;;;28.93;63.54
30897;BME280;64229;52.246;21.054;2023-08-06T08:06:12;98765.91;;;29.30;61.49
30897;BME280;64229;52.246;21.054;2023-08-06T08:08:37;98756.94;;;29.46;60.26
30897;BME280;64229;52.246;21.054;2023-08-06T08:11:04;98762.44;;;29.78;60.53
30897;BME280;64229;52.246;21.054;2023-08-06T08:13:29;98762.72;;;30.29;58.90
30897;BME280;64229;52.246;21.054;2023-08-06T08:15:58;98753.78;;;30.96;57.28
30897;BME280;64229;52.246;21.054;2023-08-06T08:18:24;98764.72;;;31.50;56.33
30897;BME280;64229;52.246;21.054;2023-08-06T08:20:49;98751.03;;;31.21;54.88
30897;BME280;64229;52.246;21.054;2023-08-06T08:23:15;98750.00;;;31.15;56.17
30897;BME280;64229;52.246;21.054;2023-08-06T08:25:40;98747.75;;;31.39;54.90
30897;BME280;64229;52.246;21.054;2023-08-06T08:28:07;98735.94;;;31.26;54.52
30897;BME280;64229;52.246;21.054;2023-08-06T08:30:32;98742.44;;;31.45;53.55
30897;BME280;64229;52.246;21.054;2023-08-06T08:32:58;98738.44;;;31.58;53.92
30897;BME280;64229;52.246;21.054;2023-08-06T08:35:23;98749.22;;;32.47;51.49
30897;BME280;64229;52.246;21.054;2023-08-06T08:37:48;98732.69;;;32.78;50.47
30897;BME280;64229;52.246;21.054;2023-08-06T08:40:14;98734.00;;;32.96;50.12
30897;BME280;64229;52.246;21.054;2023-08-06T08:42:40;98730.50;;;33.04;49.18
30897;BME280;64229;52.246;21.054;2023-08-06T08:45:13;98731.59;;;32.32;50.38
30897;BME280;64229;52.246;21.054;2023-08-06T08:47:40;98727.16;;;31.78;50.97
30897;BME280;64229;52.246;21.054;2023-08-06T08:50:08;98726.91;;;31.25;52.95
30897;BME280;64229;52.246;21.054;2023-08-06T08:52:33;98724.81;;;30.62;54.74
30897;BME280;64229;52.246;21.054;2023-08-06T08:55:01;98724.31;;;30.80;54.90
30897;BME280;64229;52.246;21.054;2023-08-06T08:57:26;98714.59;;;30.63;55.05
30897;BME280;64229;52.246;21.054;2023-08-06T08:59:52;98711.75;;;30.66;54.98
30897;BME280;64229;52.246;21.054;2023-08-06T09:02:18;98707.75;;;30.55;55.29
30897;BME280;64229;52.246;21.054;2023-08-06T09:04:46;98704.41;;;30.34;56.29
30897;BME280;64229;52.246;21.054;2023-08-06T09:07:17;98707.13;;;30.05;56.57
30897;BME280;64229;52.246;21.054;2023-08-06T09:09:43;98713.19;;;29.84;57.11
30897;BME280;64229;52.246;21.054;2023-08-06T09:12:14;98701.97;;;29.46;57.78
30897;BME280;64229;52.246;21.054;2023-08-06T09:14:40;98693.72;;;28.77;59.88
30897;BME280;64229;52.246;21.054;2023-08-06T09:17:05;98694.28;;;28.68;61.42
30897;BME280;64229;52.246;21.054;2023-08-06T09:19:31;98700.91;;;29.23;61.14
30897;BME280;64229;52.246;21.054;2023-08-06T09:21:56;98691.16;;;30.00;58.37
30897;BME280;64229;52.246;21.054;2023-08-06T09:24:22;98686.06;;;30.57;nan
30897;BME280;64229;52.246;21.054;2023-08-06T09:26:48;98679.94;;;30.78;54.54
30897;BME280;64229;52.246;21.054;2023-08-06T09:29:13;98682.25;;;30.25;56.17
30897;BME280;64229;52.246;21.054;2023-08-06T09:31:44;98688.06;;;29.98;56.81
30897;BME280;64229;52.246;21.054;2023-08-06T09:34:11;98678.88;;;29.59;57.87
30897;BME280;64229;52.246;21.054;2023-08-06T09:36:51;98673.00;;;29.08;58.59
30897;BME280;64229;52.246;21.054;2023-08-06T09:39:26;98673.47;;;28.87;59.81
30897;BME280;64229;52.246;21.054;2023-08-06T09:41:56;98668.22;;;28.76;59.10
30897;BME280;64229;52.246;21.054;2023-08-06T09:44:21;98657.31;;;29.09;59.15
30897;BME280;64229;52.246;21.054;2023-08-06T09:49:15;98658.38;;;30.06;56.38
30897;BME280;64229;52.246;21.054;2023-08-06T09:51:41;98674.19;;;30.18;55.27
30897;BME280;64229;52.246;21.054;2023-08-06T09:54:06;98668.38;;;29.54;57.41
30897;BME280;64229;52.246;21.054;2023-08-06T09:56:34;98670.66;;;28.91;59.09
30897;BME280;64229;52.246;21.054;2023-08-06T09:59:04;98657.66;;;29.11;58.64
30897;BME280;64229;52.246;21.054;2023-08-06T10:01:32;98655.53;;;29.80;56.92
30897;BME280;64229;52.246;21.054;2023-08-06T10:03:59;98642.38;;;30.17;55.64
30897;BME280;64229;52.246;21.054;2023-08-06T10:06:26;98647.66;;;30.91;54.04
30897;BME280;64229;52.246;21.054;2023-08-06T10:08:51;98644.94;;;31.86;51.04
30897;BME280;64229;52.246;21.054;2023-08-06T10:11:17;98633.66;;;32.37;49.20
30897;BME280;64229;52.246;21.054;2023-08-06T10:13:43;98640.84;;;31.90;50.25
30897;BME280;64229;52.246;21.054;2023-08-06T10:16:09;98627.53;;;31.42;51.25
30897;BME280;64229;52.246;21.054;2023-08-06T10:18:37;98631.84;;;31.77;50.86
30897;BME280;64229;52.246;21.054;2023-08-06T10:21:07;98629.53;;;31.76;49.99
30897;BME280;64229;52.246;21.054;2023-08-06T10:23:34;98617.66;;;30.93;50.84
30897;BME280;64229;52.246;21.054;2023-08-06T10:26:00;98620.41;;;30.55;52.59
30897;BME280;64229;52.246;21.054;2023-08-06T10:28:37;98603.63;;;30.11;54.35
30897;BME280;64229;52.246;21.054;2023-08-06T10:31:02;98601.88;;;30.17;54.00
30897;BME280;64229;52.246;21.054;2023-08-06T10:33:44;98606.72;;;30.13;54.32
30897;BME280;64229;52.246;21.054;2023-08-06T10:36:10;98610.03;;;29.92;54.57
30897;BME280;64229;52.246;21.054;2023-08-06T10:38:44;98605.44;;;30.02;54.53
30897;BME280;64229;52.246;21.054;2023-08-06T10:41:35;98594.94;;;29.55;54.26
30897;BME280;64229;52.246;21.054;2023-08-06T10:44:07;98603.44;;;29.44;55.38
30897;BME280;64229;52.246;21.054;2023-08-06T10:46:33;98601.84;;;29.30;55.65
30897;BME280;64229;52.246;21.054;2023-08-06T10:48:59;98600.56;;;29.19;56.37
30897;BME280;64229;52.246;21.054;2023-08-06T10:51:24;98589.13;;;29.20;55.58
30897;BME280;64229;52.246;21.054;2023-08-06T10:53:50;98591.72;;;29.27;55.94
30897;BME280;64229;52.246;21.054;2023-08-06T10:56:20;98574.41;;;28.98;56.68
30897;BME280;64229;52.246;21.054;2023-08-06T10:58:48;98588.03;;;29.18;55.76
30897;BME280;64229;52.246;21.054;2023-08-06T11:01:14;98588.00;;;29.34;55.89
30897;BME280;64229;52.246;21.054;2023-08-06T11:03:41;98570.75;;;29.50;53.94
30897;BME280;64229;52.246;21.054;2023-08-06T11:06:07;98558.75;;;29.27;53.76
30897;BME280;64229;52.246;21.054;2023-08-06T11:08:37;98558.06;;;29.23;54.70
30897;BME280;64229;52.246;21.054;2023-08-06T11:11:11;98556.81;;;28.95;55.45
30897;BME280;64229;52.246;21.054;2023-08-06T11:13:38;98555.00;;;28.89;54.30
30897;BME280;64229;52.246;21.054;2023-08-06T11:16:04;98555.63;;;28.96;54.60
30897;BME280;64229;52.246;21.054;2023-08-06T11:18:30;98547.72;;;28.98;55.05
30897;BME280;64229;52.246;21.054;2023-08-06T11:20:58;98548.97;;;29.10;55.02
30897;BME280;64229;52.246;21.054;2023-08-06T11:23:26;98544.69;;;29.09;54.94
30897;BME280;64229;52.246;21.054;2023-08-06T11:25:53;98539.47;;;28.98;55.05
30897;BME280;64229;52.246;21.054;2023-08-06T11:28:19;98540.34;;;28.95;54.98
30897;BME280;64229;52.246;21.054;2023-08-06T11:30:46;98541.28;;;29.05;55.41
30897;BME280;64229;52.246;21.054;2023-08-06T11:33:11;98525.09;;;29.23;55.06
30897;BME280;64229;52.246;21.054;2023-08-06T11:35:37;98522.81;;;29.34;54.77
30897;BME280;64229;52.246;21.054;2023-08-06T11:38:02;98518.53;;;29.33;54.37
30897;BME280;64229;52.246;21.054;2023-08-06T11:40:28;98514.25;;;29.32;54.24
30897;BME280;64229;52.246;21.054;2023-08-06T11:42:53;98525.97;;;29.20;53.82
30897;BME280;64229;52.246;21.054;2023-08-06T11:45:22;98522.66;;;28.96;54.55
30897;BME280;64229;52.246;21.054;2023-08-06T11:47:52;98500.66;;;28.80;54.28
30897;BME280;64229;52.246;21.054;2023-08-06T11:50:25;98498.63;;;29.00;54.78
30897;BME280;64229;52.246;21.054;2023-08-06T11:53:00;98497.72;;;29.20;53.49
30897;BME280;64229;52.246;21.054;2023-08-06T11:55:28;98498.44;;;29.36;53.28
30897;BME280;64229;52.246;21.054;2023-08-06T11:57:53;98503.84;;;29.40;51.93
30897;BME280;64229;52.246;21.054;2023-08-06T12:00:19;98497.38;;;29.18;52.52
30897;BME280;64229;52.246;21.054;2023-08-06T12:02:47;98470.13;;;29.23;52.40
30897;BME280;64229;52.246;21.054;2023-08-06T12:05:15;98485.66;;;29.30;51.46
30897;BME280;64229;52.246;21.054;2023-08-06T12:07:46;98484.50;;;29.44;52.63
30897;BME280;64229;52.246;21.054;2023-08-06T12:10:13;98484.34;;;29.51;51.97
30897;BME280;64229;52.246;21.054;2023-08-06T12:12:38;98494.16;;;29.35;52.10
30897;BME280;64229;52.246;21.054;2023-08-06T12:15:05;98486.88;;;29.29;52.22
30897;BME280;64229;52.246;21.054;2023-08-06T12:17:34;98492.22;;;29.20;52.36
30897;BME280;64229;52.246;21.054;2023-08-06T12:19:59;98491.84;;;29.05;53.67
30897;BME280;64229;52.246;21.054;2023-08-06T12:22:25;98492.00;;;28.98;54.47
30897;BME280;64229;52.246;21.054;2023-08-06T12:24:51;98489.16;;;29.01;54.59
30897;BME280;64229;52.246;21.054;2023-08-06T12:27:16;98486.09;;;28.83;55.27
30897;BME280;64229;52.246;21.054;2023-08-06T12:29:43;98499.59;;;28.94;55.25
30897;BME280;64229;52.246;21.054;2023-08-06T12:32:09;98484.31;;;28.93;54.35
30897;BME280;64229;52.246;21.054;2023-08-06T12:34:35;98487.97;;;28.86;54.42
30897;BME280;64229;52.246;21.054;2023-08-06T12:37:01;98495.38;;;28.73;53.95
30897;BME280;64229;52.246;21.054;2023-08-06T12:39:27;98495.97;;;28.64;54.41
30897;BME280;64229;52.246;21.054;2023-08-06T12:41:54;98506.69;;;28.42;55.44
30897;BME280;64229;52.246;21.054;2023-08-06T12:44:20;98485.50;;;28.43;56.02
30897;BME280;64229;52.246;21.054;2023-08-06T12:46:45;98484.41;;;28.40;55.71
30897;BME280;64229;52.246;21.054;2023-08-06T12:49:11;98479.78;;;28.17;56.89
30897;BME280;64229;52.246;21.054;2023-08-06T12:51:36;98477.38;;;28.03;57.21